createdAt,value
2022-10-30T00:00:52.697Z,17.74
2022-10-30T00:03:38.886Z,17.76
2022-10-30T00:06:05.827Z,17.79
2022-10-30T00:08:33.005Z,17.79
2022-10-30T00:11:10.900Z,17.73
2022-10-30T00:13:38.812Z,17.71
2022-10-30T00:16:07.601Z,17.70
2022-10-30T00:18:39.360Z,17.65
2022-10-30T00:21:14.236Z,17.50
2022-10-30T00:23:47.673Z,17.45
2022-10-30T00:26:14.388Z,17.36
2022-10-30T00:28:40.758Z,17.41
2022-10-30T00:31:07.249Z,17.25
2022-10-30T00:33:33.763Z,17.09
2022-10-30T00:36:00.738Z,16.90
2022-10-30T00:38:27.524Z,16.83
2022-10-30T00:40:54.155Z,16.99
2022-10-30T00:43:40.312Z,17.15
2022-10-30T00:46:19.752Z,17.25
2022-10-30T00:48:51.889Z,17.23
2022-10-30T00:51:19.898Z,17.25
2022-10-30T00:53:47.511Z,17.02
2022-10-30T00:56:16.830Z,17.01
2022-10-30T00:58:47.738Z,17.05
2022-10-30T01:01:19.229Z,17.28
2022-10-30T01:03:50.473Z,17.42
2022-10-30T01:06:18.365Z,16.92
2022-10-30T01:08:46.635Z,16.52
2022-10-30T01:11:13.095Z,16.80
2022-10-30T01:13:44.969Z,16.67
2022-10-30T01:16:18.373Z,16.56
2022-10-30T01:18:47.742Z,16.56
2022-10-30T01:21:19.135Z,16.68
2022-10-30T01:23:54.716Z,16.77
2022-10-30T01:26:40.164Z,16.84
2022-10-30T01:29:13.256Z,16.85
2022-10-30T01:31:40.006Z,16.81
2022-10-30T01:34:20.730Z,16.80
2022-10-30T01:37:04.382Z,16.82
2022-10-30T01:39:36.094Z,16.74
2022-10-30T01:42:40.510Z,16.61
2022-10-30T01:45:07.514Z,16.65
2022-10-30T01:47:46.530Z,16.64
2022-10-30T01:50:27.852Z,16.72
2022-10-30T01:53:33.067Z,16.67
2022-10-30T01:56:15.141Z,16.30
2022-10-30T01:59:02.549Z,16.21
2022-10-30T02:01:32.736Z,16.38
2022-10-30T02:03:59.572Z,16.78
2022-10-30T02:06:26.257Z,16.82
2022-10-30T02:08:55.974Z,16.85
2022-10-30T02:11:26.027Z,16.70
2022-10-30T02:13:55.322Z,16.82
2022-10-30T02:16:22.836Z,16.82
2022-10-30T02:18:49.390Z,16.74
2022-10-30T02:21:15.894Z,16.66
2022-10-30T02:23:42.732Z,16.66
2022-10-30T02:26:09.560Z,16.88
2022-10-30T02:28:37.794Z,16.78
2022-10-30T02:31:04.910Z,16.92
2022-10-30T02:33:31.242Z,16.89
2022-10-30T02:35:57.676Z,16.74
2022-10-30T02:38:24.209Z,16.83
2022-10-30T02:40:51.480Z,16.76
2022-10-30T02:43:17.966Z,16.77
2022-10-30T02:45:50.003Z,16.75
2022-10-30T02:48:16.558Z,16.77
2022-10-30T02:50:42.918Z,16.64
2022-10-30T02:53:09.282Z,16.57
2022-10-30T02:55:35.644Z,16.55
2022-10-30T02:58:02.590Z,16.16
2022-10-30T03:00:29.843Z,16.02
2022-10-30T03:02:57.197Z,15.72
2022-10-30T03:05:24.785Z,15.77
2022-10-30T03:07:51.188Z,15.63
2022-10-30T03:10:17.858Z,15.55
2022-10-30T03:12:44.263Z,15.46
2022-10-30T03:15:10.629Z,15.76
2022-10-30T03:17:37.098Z,15.85
2022-10-30T03:20:03.769Z,16.05
2022-10-30T03:22:30.231Z,16.16
2022-10-30T03:24:56.814Z,16.22
2022-10-30T03:27:23.276Z,16.38
2022-10-30T03:29:50.657Z,15.95
2022-10-30T03:32:17.190Z,15.81
2022-10-30T03:34:51.159Z,16.01
2022-10-30T03:37:18.553Z,15.83
2022-10-30T03:39:44.888Z,15.71
2022-10-30T03:42:11.953Z,15.48
2022-10-30T03:44:38.479Z,15.39
2022-10-30T03:47:05.071Z,15.41
2022-10-30T03:49:40.710Z,15.46
2022-10-30T03:52:10.555Z,15.39
2022-10-30T03:54:37.106Z,15.28
2022-10-30T03:57:03.610Z,15.04
2022-10-30T03:59:36.264Z,15.04
2022-10-30T04:02:29.130Z,15.12
2022-10-30T04:04:55.711Z,15.09
2022-10-30T04:07:22.474Z,15.11
2022-10-30T04:09:49.186Z,15.04
2022-10-30T04:12:15.508Z,14.81
2022-10-30T04:14:42.036Z,14.57
2022-10-30T04:19:40.398Z,14.21
2022-10-30T04:22:07.109Z,14.14
2022-10-30T04:24:34.295Z,14.15
2022-10-30T04:27:00.701Z,14.25
2022-10-30T04:29:27.108Z,14.36
2022-10-30T04:31:53.626Z,14.41
2022-10-30T04:34:20.621Z,14.38
2022-10-30T04:36:47.175Z,14.24
2022-10-30T04:39:13.898Z,14.28
2022-10-30T04:41:41.363Z,14.35
2022-10-30T04:44:14.167Z,14.38
2022-10-30T04:46:40.841Z,14.44
2022-10-30T04:49:09.053Z,14.46
2022-10-30T04:51:35.659Z,14.46
2022-10-30T04:54:03.367Z,14.48
2022-10-30T04:56:32.331Z,14.51
2022-10-30T04:58:59.162Z,14.54
2022-10-30T05:01:25.639Z,14.59
2022-10-30T05:03:54.682Z,14.61
2022-10-30T05:06:26.097Z,14.71
2022-10-30T05:08:53.021Z,14.73
2022-10-30T05:11:39.848Z,14.71
2022-10-30T05:14:06.759Z,14.81
2022-10-30T05:16:33.479Z,15.19
2022-10-30T05:19:01.541Z,15.12
2022-10-30T05:21:28.799Z,15.27
2022-10-30T05:23:55.442Z,15.45
2022-10-30T05:26:23.138Z,15.39
2022-10-30T05:28:51.219Z,15.32
2022-10-30T05:31:17.562Z,15.25
2022-10-30T05:33:52.800Z,15.02
2022-10-30T05:36:20.295Z,15.13
2022-10-30T05:38:47.876Z,15.30
2022-10-30T05:41:22.892Z,15.38
2022-10-30T05:43:49.727Z,15.42
2022-10-30T05:46:16.345Z,15.46
2022-10-30T05:48:43.263Z,15.46
2022-10-30T05:51:09.951Z,15.56
2022-10-30T05:53:39.693Z,15.60
2022-10-30T05:56:06.304Z,15.57
2022-10-30T05:58:34.336Z,15.44
2022-10-30T06:01:08.323Z,15.26
2022-10-30T06:03:43.586Z,15.16
2022-10-30T06:06:11.333Z,15.26
2022-10-30T06:08:37.987Z,15.35
2022-10-30T06:11:28.821Z,15.39
2022-10-30T06:13:58.104Z,15.43
2022-10-30T06:16:36.923Z,15.50
2022-10-30T06:19:18.835Z,15.50
2022-10-30T06:21:46.683Z,15.45
2022-10-30T06:24:36.093Z,15.19
2022-10-30T06:27:22.802Z,15.08
2022-10-30T06:29:50.242Z,15.13
2022-10-30T06:32:16.549Z,15.15
2022-10-30T06:34:44.255Z,15.12
2022-10-30T06:37:11.596Z,15.08
2022-10-30T06:39:38.381Z,14.98
2022-10-30T06:42:22.863Z,14.99
2022-10-30T06:45:07.642Z,15.19
2022-10-30T06:47:35.740Z,15.37
2022-10-30T06:50:04.608Z,15.44
2022-10-30T06:52:31.147Z,15.49
2022-10-30T06:54:57.718Z,15.37
2022-10-30T06:57:55.408Z,15.29
2022-10-30T07:00:31.182Z,15.24
2022-10-30T07:03:34.768Z,15.04
2022-10-30T07:06:01.848Z,15.03
2022-10-30T07:08:28.944Z,15.16
2022-10-30T07:11:01.854Z,15.31
2022-10-30T07:13:58.462Z,15.43
2022-10-30T07:16:54.509Z,15.58
2022-10-30T07:19:25.322Z,15.83
2022-10-30T07:21:53.364Z,16.13
2022-10-30T07:24:20.118Z,16.31
2022-10-30T07:27:16.919Z,16.35
2022-10-30T07:29:50.505Z,16.54
2022-10-30T07:32:21.058Z,16.73
2022-10-30T07:35:07.787Z,16.97
2022-10-30T07:37:53.518Z,17.19
2022-10-30T07:40:21.527Z,17.29
2022-10-30T07:43:06.082Z,17.46
2022-10-30T07:45:53.255Z,17.49
2022-10-30T07:48:37.378Z,17.65
2022-10-30T07:51:09.079Z,17.81
2022-10-30T07:53:36.924Z,17.90
2022-10-30T07:56:04.965Z,18.00
2022-10-30T08:02:13.247Z,18.38
2022-10-30T08:04:52.868Z,18.37
2022-10-30T08:07:39.749Z,18.56
2022-10-30T08:10:07.819Z,18.75
2022-10-30T08:12:36.813Z,18.93
2022-10-30T08:15:04.133Z,19.15
2022-10-30T08:17:31.445Z,19.29
2022-10-30T08:19:58.226Z,19.45
2022-10-30T08:22:25.105Z,19.54
2022-10-30T08:24:57.289Z,19.62
2022-10-30T08:27:24.514Z,19.84
2022-10-30T08:29:51.224Z,19.98
2022-10-30T08:32:17.894Z,19.76
2022-10-30T08:35:06.126Z,19.76
2022-10-30T08:37:33.418Z,19.96
2022-10-30T08:40:00.352Z,20.08
2022-10-30T08:42:38.757Z,20.13
2022-10-30T08:45:09.240Z,20.48
2022-10-30T08:48:01.544Z,20.88
2022-10-30T08:50:31.015Z,21.15
2022-10-30T08:53:05.598Z,21.16
2022-10-30T08:55:37.793Z,21.24
2022-10-30T08:58:07.427Z,21.28
2022-10-30T09:00:38.493Z,21.14
2022-10-30T09:03:11.278Z,21.19
2022-10-30T09:06:12.372Z,21.15
2022-10-30T09:09:06.575Z,21.26
2022-10-30T09:11:48.436Z,21.48
2022-10-30T09:14:15.658Z,21.73
2022-10-30T09:16:43.051Z,21.83
2022-10-30T09:19:12.579Z,21.96
2022-10-30T09:21:42.711Z,22.18
2022-10-30T09:24:10.245Z,22.66
2022-10-30T09:26:42.441Z,22.67
2022-10-30T09:29:15.872Z,22.60
2022-10-30T09:32:29.642Z,22.56
2022-10-30T09:35:08.613Z,22.88
2022-10-30T09:37:39.815Z,22.67
2022-10-30T09:40:35.907Z,22.66
2022-10-30T09:43:28.478Z,22.45
2022-10-30T09:46:22.286Z,22.61
2022-10-30T09:49:10.831Z,22.87
2022-10-30T09:52:00.274Z,22.86
2022-10-30T09:54:41.477Z,22.70
2022-10-30T09:57:20.658Z,22.85
2022-10-30T10:00:06.501Z,22.89
2022-10-30T10:03:13.784Z,22.56
2022-10-30T10:06:02.160Z,22.49
2022-10-30T10:09:20.121Z,22.64
2022-10-30T10:12:28.891Z,22.45
2022-10-30T10:14:57.435Z,22.49
2022-10-30T10:17:33.006Z,22.74
2022-10-30T10:20:01.875Z,22.80
2022-10-30T10:22:40.699Z,23.12
2022-10-30T10:25:15.969Z,23.14
2022-10-30T10:28:07.344Z,23.05
2022-10-30T10:31:00.333Z,22.97
2022-10-30T10:33:42.144Z,23.28
2022-10-30T10:36:39.529Z,23.63
2022-10-30T10:39:18.732Z,24.22
2022-10-30T10:42:02.889Z,24.10
2022-10-30T10:44:45.375Z,23.94
2022-10-30T10:47:25.828Z,24.31
2022-10-30T10:50:06.639Z,24.49
2022-10-30T10:52:49.069Z,24.75
2022-10-30T10:55:24.353Z,25.05
2022-10-30T10:57:53.265Z,25.08
2022-10-30T11:00:27.790Z,24.99
2022-10-30T11:05:54.975Z,25.21
2022-10-30T11:08:29.262Z,25.26
2022-10-30T11:11:03.167Z,25.60
2022-10-30T11:13:42.754Z,25.71
2022-10-30T11:16:32.907Z,25.53
2022-10-30T11:19:02.849Z,25.54
2022-10-30T11:21:34.758Z,25.39
2022-10-30T11:24:01.844Z,25.26
2022-10-30T11:26:33.812Z,25.31
2022-10-30T11:29:05.345Z,25.50
2022-10-30T11:31:37.190Z,25.53
2022-10-30T11:34:18.922Z,25.63
2022-10-30T11:36:50.531Z,25.46
2022-10-30T11:39:23.299Z,25.36
2022-10-30T11:42:14.330Z,25.29
2022-10-30T11:44:51.161Z,25.28
2022-10-30T11:50:22.110Z,25.07
2022-10-30T11:52:54.209Z,25.04
2022-10-30T11:55:32.952Z,25.08
2022-10-30T11:58:01.002Z,25.04
2022-10-30T12:00:32.038Z,25.11
2022-10-30T12:03:00.842Z,24.75
2022-10-30T12:05:43.705Z,24.52
2022-10-30T12:08:17.361Z,24.45
2022-10-30T12:10:56.181Z,24.60
2022-10-30T12:13:26.637Z,24.74
2022-10-30T12:19:09.746Z,24.58
2022-10-30T12:21:41.121Z,24.52
2022-10-30T12:24:18.382Z,24.53
2022-10-30T12:26:52.605Z,24.48
2022-10-30T12:30:06.865Z,24.58
2022-10-30T12:32:39.651Z,24.68
2022-10-30T12:35:28.072Z,24.70
2022-10-30T12:37:59.672Z,24.63
2022-10-30T12:40:31.517Z,24.79
2022-10-30T12:43:27.343Z,24.80
2022-10-30T12:46:19.761Z,24.98
2022-10-30T12:49:10.413Z,24.91
2022-10-30T12:51:52.323Z,24.87
2022-10-30T12:54:34.046Z,24.90
2022-10-30T12:57:25.748Z,24.99
2022-10-30T13:00:10.692Z,25.06
2022-10-30T13:02:59.874Z,25.09
2022-10-30T13:05:45.169Z,25.01
2022-10-30T13:08:21.435Z,24.92
2022-10-30T13:11:04.741Z,24.96
2022-10-30T13:13:35.963Z,24.88
2022-10-30T13:16:12.951Z,24.92
2022-10-30T13:18:39.884Z,24.71
2022-10-30T13:21:13.798Z,24.81
2022-10-30T13:23:52.461Z,24.89
2022-10-30T13:26:24.231Z,24.77
2022-10-30T13:29:13.072Z,24.90
2022-10-30T13:31:45.897Z,24.88
2022-10-30T13:34:24.767Z,24.73
2022-10-30T13:37:41.248Z,24.81
2022-10-30T13:40:23.683Z,24.75
2022-10-30T13:43:15.354Z,24.66
2022-10-30T13:46:04.365Z,24.67
2022-10-30T13:48:42.707Z,24.81
2022-10-30T13:51:22.694Z,24.83
2022-10-30T13:54:10.124Z,24.82
2022-10-30T13:56:37.025Z,24.85
2022-10-30T13:59:09.997Z,24.84
2022-10-30T14:01:57.618Z,24.70
2022-10-30T14:04:39.016Z,24.71
2022-10-30T14:07:27.417Z,24.71
2022-10-30T14:10:12.963Z,24.68
2022-10-30T14:12:53.221Z,24.72
2022-10-30T14:15:29.359Z,24.80
2022-10-30T14:18:45.436Z,25.00
2022-10-30T14:21:54.122Z,25.12
2022-10-30T14:27:05.892Z,25.22
2022-10-30T14:29:32.408Z,25.57
2022-10-30T14:31:59.768Z,25.86
2022-10-30T14:34:44.288Z,25.95
2022-10-30T14:37:12.682Z,26.04
2022-10-30T14:39:44.432Z,26.15
2022-10-30T14:42:56.821Z,26.07
2022-10-30T14:45:45.515Z,26.00
2022-10-30T14:48:28.071Z,25.95
2022-10-30T14:51:22.130Z,25.77
2022-10-30T14:54:18.495Z,25.69
2022-10-30T14:56:47.914Z,25.55
2022-10-30T14:59:14.370Z,25.51
2022-10-30T15:01:51.941Z,25.27
2022-10-30T15:04:27.644Z,25.14
2022-10-30T15:07:06.751Z,25.06
2022-10-30T15:09:52.843Z,24.80
2022-10-30T15:12:45.508Z,24.66
2022-10-30T15:15:15.799Z,24.63
2022-10-30T15:17:46.746Z,24.48
2022-10-30T15:20:20.683Z,23.99
2022-10-30T15:22:50.454Z,23.97
2022-10-30T15:25:23.387Z,23.76
2022-10-30T15:27:59.250Z,23.65
2022-10-30T15:30:27.064Z,23.53
2022-10-30T15:32:53.525Z,23.22
2022-10-30T15:35:23.003Z,22.77
2022-10-30T15:38:04.741Z,22.46
2022-10-30T15:40:34.064Z,21.98
2022-10-30T15:43:03.084Z,21.67
2022-10-30T15:45:32.697Z,21.54
2022-10-30T15:48:13.335Z,21.49
2022-10-30T15:50:45.493Z,21.54
2022-10-30T15:53:21.010Z,21.49
2022-10-30T15:55:48.775Z,21.51
2022-10-30T15:58:20.865Z,21.57
2022-10-30T16:00:56.524Z,21.51
2022-10-30T16:03:23.565Z,21.44
2022-10-30T16:05:51.040Z,21.48
2022-10-30T16:08:22.213Z,21.46
2022-10-30T16:10:52.891Z,21.44
2022-10-30T16:13:26.009Z,21.35
2022-10-30T16:15:54.036Z,21.26
2022-10-30T16:18:24.779Z,21.03
2022-10-30T16:20:54.597Z,20.64
2022-10-30T16:23:24.276Z,20.32
2022-10-30T16:25:57.789Z,19.92
2022-10-30T16:28:26.804Z,19.61
2022-10-30T16:30:55.255Z,19.43
2022-10-30T16:33:26.503Z,19.29
2022-10-30T16:35:55.959Z,19.19
2022-10-30T16:38:27.234Z,19.09
2022-10-30T16:40:58.433Z,18.94
2022-10-30T16:43:31.874Z,18.92
2022-10-30T16:46:15.419Z,18.73
2022-10-30T16:48:52.696Z,18.76
2022-10-30T16:51:28.001Z,18.76
2022-10-30T16:53:55.445Z,18.77
2022-10-30T16:56:23.932Z,18.74
2022-10-30T16:58:54.009Z,18.74
2022-10-30T17:01:26.173Z,18.81
2022-10-30T17:03:54.176Z,18.76
2022-10-30T17:06:33.680Z,18.55
2022-10-30T17:09:00.547Z,18.46
2022-10-30T17:11:40.883Z,18.51
2022-10-30T17:14:21.338Z,18.33
2022-10-30T17:16:55.328Z,18.22
2022-10-30T17:19:30.492Z,18.10
2022-10-30T17:22:09.531Z,18.05
2022-10-30T17:24:38.550Z,18.20
2022-10-30T17:27:23.532Z,18.27
2022-10-30T17:29:50.576Z,18.31
2022-10-30T17:32:23.095Z,18.31
2022-10-30T17:35:01.446Z,18.28
2022-10-30T17:37:28.882Z,18.32
2022-10-30T17:39:56.204Z,18.31
2022-10-30T17:42:29.183Z,18.30
2022-10-30T17:44:56.630Z,18.31
2022-10-30T17:47:23.343Z,18.40
2022-10-30T17:49:51.196Z,18.41
2022-10-30T17:52:22.344Z,18.50
2022-10-30T17:54:50.924Z,18.63
2022-10-30T17:57:22.228Z,18.59
2022-10-30T17:59:49.926Z,18.56
2022-10-30T18:02:22.667Z,18.55
2022-10-30T18:04:52.003Z,18.33
2022-10-30T18:07:18.532Z,18.30
2022-10-30T18:09:45.733Z,18.40
2022-10-30T18:12:16.101Z,18.17
2022-10-30T18:14:45.120Z,18.01
2022-10-30T18:17:14.443Z,17.85
2022-10-30T18:19:41.872Z,17.62
2022-10-30T18:22:09.765Z,17.57
2022-10-30T18:24:37.134Z,17.48
2022-10-30T18:27:04.340Z,17.40
2022-10-30T18:29:31.915Z,17.44
2022-10-30T18:31:58.997Z,17.54
2022-10-30T18:34:28.863Z,17.61
2022-10-30T18:36:57.942Z,17.65
2022-10-30T18:39:24.806Z,17.62
2022-10-30T18:41:56.053Z,17.63
2022-10-30T18:44:26.597Z,17.63
2022-10-30T18:46:56.454Z,17.59
2022-10-30T18:49:28.927Z,17.58
2022-10-30T18:51:56.657Z,17.54
2022-10-30T18:54:27.669Z,17.47
2022-10-30T18:57:07.223Z,17.46
2022-10-30T18:59:39.283Z,17.40
2022-10-30T19:02:24.332Z,17.39
2022-10-30T19:04:52.719Z,17.27
2022-10-30T19:07:26.811Z,17.27
2022-10-30T19:09:59.254Z,17.17
2022-10-30T19:12:28.837Z,17.05
2022-10-30T19:15:00.132Z,17.06
2022-10-30T19:17:28.426Z,17.05
2022-10-30T19:19:56.954Z,16.98
2022-10-30T19:22:30.528Z,16.99
2022-10-30T19:24:59.829Z,16.91
2022-10-30T19:27:32.750Z,16.86
2022-10-30T19:30:26.443Z,16.76
2022-10-30T19:33:01.875Z,16.62
2022-10-30T19:35:29.163Z,16.58
2022-10-30T19:37:57.095Z,16.60
2022-10-30T19:40:32.585Z,16.63
2022-10-30T19:43:01.390Z,16.61
2022-10-30T19:45:31.465Z,16.55
2022-10-30T19:48:01.802Z,16.51
2022-10-30T19:50:41.076Z,16.44
2022-10-30T19:53:08.945Z,16.28
2022-10-30T19:55:38.738Z,16.01
2022-10-30T19:58:11.529Z,15.79
2022-10-30T20:00:43.768Z,15.72
2022-10-30T20:03:14.378Z,15.81
2022-10-30T20:05:50.375Z,16.02
2022-10-30T20:08:39.143Z,16.06
2022-10-30T20:11:07.750Z,16.00
2022-10-30T20:13:36.607Z,16.01
2022-10-30T20:16:05.284Z,16.03
2022-10-30T20:18:35.854Z,16.00
2022-10-30T20:21:10.018Z,16.01
2022-10-30T20:23:38.202Z,15.78
2022-10-30T20:26:13.717Z,15.64
2022-10-30T20:28:44.565Z,15.51
2022-10-30T20:31:12.825Z,15.53
2022-10-30T20:33:41.520Z,15.58
2022-10-30T20:36:12.845Z,15.73
2022-10-30T20:38:40.940Z,15.79
2022-10-30T20:41:20.736Z,15.81
2022-10-30T20:43:49.691Z,15.78
2022-10-30T20:46:18.072Z,15.74
2022-10-30T20:48:46.205Z,15.74
2022-10-30T20:51:17.615Z,15.61
2022-10-30T20:53:44.597Z,15.67
2022-10-30T20:56:12.344Z,15.68
2022-10-30T20:58:44.931Z,15.61
2022-10-30T21:01:13.657Z,15.54
2022-10-30T21:03:44.549Z,15.54
2022-10-30T21:06:12.999Z,15.56
2022-10-30T21:08:40.342Z,15.48
2022-10-30T21:11:08.984Z,15.44
2022-10-30T21:13:38.248Z,15.34
2022-10-30T21:16:09.804Z,15.31
2022-10-30T21:18:37.069Z,15.34
2022-10-30T21:21:07.960Z,15.35
2022-10-30T21:23:37.070Z,15.36
2022-10-30T21:26:11.369Z,15.35
2022-10-30T21:28:40.620Z,15.29
2022-10-30T21:31:10.779Z,15.08
2022-10-30T21:33:37.798Z,14.82
2022-10-30T21:36:12.972Z,14.90
2022-10-30T21:38:41.689Z,14.79
2022-10-30T21:41:13.953Z,14.65
2022-10-30T21:43:42.199Z,14.51
2022-10-30T21:46:12.340Z,14.54
2022-10-30T21:48:41.935Z,14.38
2022-10-30T21:51:15.782Z,14.13
2022-10-30T21:53:44.479Z,14.22
2022-10-30T21:56:20.206Z,14.33
2022-10-30T21:58:48.246Z,14.32
2022-10-30T22:01:18.959Z,14.36
2022-10-30T22:03:46.589Z,14.52
2022-10-30T22:06:18.020Z,14.52
2022-10-30T22:08:46.630Z,14.37
2022-10-30T22:11:16.823Z,14.37
2022-10-30T22:13:45.093Z,14.35
2022-10-30T22:16:14.188Z,14.40
2022-10-30T22:18:41.078Z,14.56
2022-10-30T22:21:10.590Z,14.62
2022-10-30T22:23:40.051Z,14.73
2022-10-30T22:26:16.157Z,14.74
2022-10-30T22:28:43.728Z,14.71
2022-10-30T22:31:15.949Z,14.67
2022-10-30T22:33:43.988Z,14.76
2022-10-30T22:36:16.658Z,14.86
2022-10-30T22:38:44.716Z,14.71
2022-10-30T22:41:21.014Z,14.71
2022-10-30T22:43:48.873Z,14.76
2022-10-30T22:46:18.443Z,14.62
2022-10-30T22:48:45.251Z,14.46
2022-10-30T22:51:15.258Z,14.52
2022-10-30T22:53:46.146Z,14.56
2022-10-30T22:56:16.540Z,14.47
2022-10-30T22:58:45.012Z,14.34
2022-10-30T23:01:23.679Z,14.30
2022-10-30T23:03:51.525Z,14.25
2022-10-30T23:06:20.225Z,14.12
2022-10-30T23:08:47.078Z,14.06
2022-10-30T23:11:13.967Z,13.98
2022-10-30T23:13:41.086Z,13.83
2022-10-30T23:16:12.735Z,13.79
2022-10-30T23:18:39.710Z,13.64
2022-10-30T23:21:09.915Z,13.49
2022-10-30T23:23:38.227Z,13.41
2022-10-30T23:26:18.603Z,13.35
2022-10-30T23:28:46.723Z,13.23
2022-10-30T23:31:35.628Z,13.27
2022-10-30T23:34:05.491Z,13.52
2022-10-30T23:36:32.234Z,13.65
2022-10-30T23:39:00.817Z,13.74
2022-10-30T23:41:30.436Z,13.71
2022-10-30T23:43:59.347Z,13.70
2022-10-30T23:46:25.843Z,13.74
2022-10-30T23:48:52.429Z,13.72
2022-10-30T23:51:19.558Z,13.69
2022-10-30T23:53:47.334Z,13.68
2022-10-30T23:56:15.216Z,13.62
2022-10-30T23:58:43.725Z,13.50
